Time;durP1;ratioP1;P1;durP2;ratioP2;P2;SDS_P1;SDS_P2;PMS_P1;PMS_P2;Temp;Humidity;BMP_temperature;BMP_pressure;BME280_temperature;BME280_humidity;BME280_pressure;Samples;Min_cycle;Max_cycle;Signal;HPM_P1;HPM_P2
2022/07/07 00:01:24;;;;;;;39.92;29.42;;;;;;;23.42;61.25;99373.66;5030810;28;20029;-50
2022/07/07 00:03:51;;;;;;;43.70;31.98;;;;;;;23.43;61.29;99370.69;5030395;28;20033;-53
2022/07/07 00:06:17;;;;;;;42.97;30.45;;;;;;;23.43;60.82;99375.34;5030649;28;20029;-52
2022/07/07 00:08:43;;;;;;;37.90;30.00;;;;;;;23.41;61.01;99370.06;5030984;28;20029;-56
2022/07/07 00:11:09;;;;;;;42.10;30.90;;;;;;;23.44;60.88;99366.09;5030998;28;20064;-54
2022/07/07 00:13:34;;;;;;;39.40;30.10;;;;;;;23.36;60.98;99357.06;5029548;28;20060;-53
2022/07/07 00:16:00;;;;;;;33.63;27.40;;;;;;;23.44;60.75;99357.88;5030158;28;20037;-53
2022/07/07 00:18:25;;;;;;;33.38;26.63;;;;;;;23.24;60.85;99334.22;5030349;28;20120;-56
2022/07/07 00:20:51;;;;;;;36.75;28.10;;;;;;;23.38;60.60;99359.59;5030421;28;20113;-56
2022/07/07 00:23:16;;;;;;;34.42;26.50;;;;;;;23.45;60.79;99367.75;5030647;28;20034;-54
2022/07/07 00:25:42;;;;;;;31.65;24.67;;;;;;;23.45;60.82;99373.22;5030330;28;20030;-55
2022/07/07 00:28:07;;;;;;;29.80;23.75;;;;;;;23.44;60.78;99355.16;5030521;28;20026;-54
2022/07/07 00:30:33;;;;;;;29.55;23.73;;;;;;;23.45;60.72;99367.75;5033727;28;20096;-57
2022/07/07 00:32:58;;;;;;;27.85;23.73;;;;;;;23.48;60.50;99361.84;5034265;28;20042;-56
2022/07/07 00:35:24;;;;;;;31.83;23.45;;;;;;;23.43;60.74;99365.22;5034682;28;20099;-56
2022/07/07 00:37:49;;;;;;;28.65;22.17;;;;;;;23.43;60.90;99364.41;5034122;28;20457;-54
2022/07/07 00:40:15;;;;;;;30.60;23.83;;;;;;;23.41;60.64;99361.06;5034238;28;20022;-52
2022/07/07 00:42:40;;;;;;;32.35;23.08;;;;;;;23.41;60.46;99359.16;5034504;28;20045;-52
2022/07/07 00:45:06;;;;;;;25.35;22.58;;;;;;;23.40;60.73;99360.22;5034186;28;20122;-53
2022/07/07 00:47:33;;;;;;;28.52;22.60;;;;;;;23.38;60.67;99365.06;5034284;28;20033;-54
2022/07/07 00:49:59;;;;;;;29.02;22.10;;;;;;;23.36;60.59;99365.25;5033956;28;20029;-53
2022/07/07 00:52:25;;;;;;;27.90;22.95;;;;;;;23.25;60.80;99335.06;5034200;28;20034;-52
2022/07/07 00:54:56;;;;;;;29.42;21.95;;;;;;;23.38;60.76;99370.53;5049148;28;20060;-51
2022/07/07 00:57:24;;;;;;;27.63;20.80;;;;;;;23.17;60.87;99334.25;5033703;28;20029;-54
2022/07/07 00:59:50;;;;;;;26.40;21.25;;;;;;;23.29;60.92;99350.00;5034050;28;20034;-51
2022/07/07 01:02:16;;;;;;;27.00;20.63;;;;;;;23.29;61.00;99352.72;5033990;28;20030;-55
2022/07/07 01:04:42;;;;;;;24.30;19.92;;;;;;;23.28;60.83;99357.34;5034052;28;20044;-51
2022/07/07 01:07:07;;;;;;;21.17;18.95;;;;;;;23.27;60.86;99358.41;5033941;28;20381;-53
2022/07/07 01:09:34;;;;;;;26.50;20.52;;;;;;;23.26;60.60;99347.69;5033751;28;20025;-53
2022/07/07 01:12:00;;;;;;;25.48;20.00;;;;;;;23.32;60.84;99363.22;5033731;28;20112;-54
2022/07/07 01:14:29;;;;;;;26.88;20.27;;;;;;;23.30;61.00;99355.22;5048898;28;20057;-53
2022/07/07 01:16:55;;;;;;;21.92;19.50;;;;;;;23.31;60.80;99356.06;5033775;28;20393;-53
2022/07/07 01:19:22;;;;;;;27.77;19.48;;;;;;;23.35;60.71;99360.84;5033417;28;20041;-51
2022/07/07 01:22:05;;;;;;;28.38;20.20;;;;;;;23.49;60.71;99358.06;5033727;28;20033;-54
2022/07/07 01:24:31;;;;;;;29.85;19.13;;;;;;;23.23;60.59;99329.81;5033477;28;20113;-51
2022/07/07 01:27:25;;;;;;;25.42;19.23;;;;;;;23.51;60.36;99362.25;5033554;28;20192;-48
2022/07/07 01:29:54;;;;;;;23.60;18.85;;;;;;;23.46;60.29;99364.78;5032854;28;20051;-52
2022/07/07 01:32:21;;;;;;;20.77;18.45;;;;;;;23.37;60.28;99358.75;5033442;28;20056;-52
2022/07/07 01:34:48;;;;;;;20.90;18.73;;;;;;;23.43;60.10;99364.41;5033521;28;20037;-51
2022/07/07 01:37:14;;;;;;;23.15;19.55;;;;;;;23.53;60.01;99355.72;5033474;28;20021;-52
2022/07/07 01:39:41;;;;;;;21.20;17.90;;;;;;;23.50;59.95;99370.66;5032161;28;20033;-53
2022/07/07 01:42:07;;;;;;;20.50;18.02;;;;;;;23.54;59.79;99365.59;5032360;28;20033;-54
2022/07/07 01:44:34;;;;;;;20.95;18.67;;;;;;;23.57;59.83;99367.88;5033268;28;20037;-53
2022/07/07 01:46:59;;;;;;;20.55;17.40;;;;;;;23.56;59.74;99352.56;5033269;28;20044;-53
2022/07/07 01:49:27;;;;;;;20.45;16.77;;;;;;;23.56;59.53;99356.09;5032980;28;20029;-51
2022/07/07 01:51:53;;;;;;;21.50;17.98;;;;;;;23.56;59.45;99345.19;5031846;28;20033;-54
2022/07/07 01:54:18;;;;;;;23.30;18.15;;;;;;;23.67;59.04;99348.28;5032748;28;20052;-52
2022/07/07 01:56:45;;;;;;;22.08;16.98;;;;;;;23.65;59.13;99349.31;5032975;28;20539;-52
2022/07/07 01:59:11;;;;;;;24.70;18.17;;;;;;;23.72;59.00;99356.63;5026680;28;20056;-52
2022/07/07 02:01:36;;;;;;;23.02;18.15;;;;;;;23.58;59.14;99329.41;5032296;28;20060;-51
2022/07/07 02:04:02;;;;;;;19.27;16.98;;;;;;;23.60;58.59;99327.28;5032600;28;20060;-53
2022/07/07 02:06:28;;;;;;;19.90;17.80;;;;;;;23.78;58.74;99355.72;5032773;28;20029;-51
2022/07/07 02:08:53;;;;;;;18.08;16.27;;;;;;;23.79;58.65;99357.41;5032530;28;20029;-53
2022/07/07 02:11:18;;;;;;;18.88;16.63;;;;;;;23.84;58.47;99351.28;5032796;28;20053;-56
2022/07/07 02:13:49;;;;;;;17.77;15.82;;;;;;;23.89;58.41;99354.19;5033025;28;20048;-50
2022/07/07 02:16:17;;;;;;;20.88;17.00;;;;;;;23.87;57.90;99354.41;5031477;28;20022;-55
2022/07/07 02:18:45;;;;;;;17.73;15.70;;;;;;;23.91;58.17;99355.66;5032159;28;20033;-53
2022/07/07 02:21:13;;;;;;;19.38;16.02;;;;;;;23.96;57.97;99356.88;5032526;28;20033;-50
2022/07/07 02:23:41;;;;;;;17.95;15.82;;;;;;;23.99;57.88;99356.41;5032622;28;20171;-52
2022/07/07 02:26:07;;;;;;;18.80;15.57;;;;;;;24.01;57.73;99351.56;5032057;28;20025;-50
2022/07/07 02:28:32;;;;;;;20.15;15.50;;;;;;;24.06;57.61;99355.31;5032426;28;20404;-51
2022/07/07 02:30:59;;;;;;;18.52;15.45;;;;;;;24.07;57.57;99357.00;5031718;28;20130;-53
2022/07/07 02:33:25;;;;;;;16.27;14.10;;;;;;;24.02;57.40;99339.59;5031750;28;20644;-50
2022/07/07 02:35:52;;;;;;;17.30;15.38;;;;;;;24.17;57.30;99347.44;5031452;28;20104;-53
2022/07/07 02:38:18;;;;;;;16.83;15.10;;;;;;;24.06;57.04;99325.25;5032097;28;20041;-51
2022/07/07 02:40:43;;;;;;;17.08;15.13;;;;;;;24.26;57.03;99346.09;5046785;28;20030;-50
2022/07/07 02:43:15;;;;;;;15.73;13.88;;;;;;;24.33;56.43;99346.84;5032180;28;20030;-52
2022/07/07 02:45:41;;;;;;;17.08;14.77;;;;;;;24.42;56.50;99366.56;5032366;28;20033;-54
2022/07/07 02:48:08;;;;;;;17.13;14.30;;;;;;;24.39;56.04;99341.53;5032057;28;20083;-52
2022/07/07 02:50:33;;;;;;;16.33;13.95;;;;;;;24.61;55.59;99363.84;5031861;28;20096;-55
2022/07/07 02:52:59;;;;;;;14.38;12.88;;;;;;;24.78;54.90;99353.94;5029419;28;20033;-55
2022/07/07 02:55:24;;;;;;;16.30;13.10;;;;;;;24.96;54.82;99354.16;5031293;28;20124;-55
2022/07/07 02:57:51;;;;;;;17.02;12.98;;;;;;;25.16;54.05;99365.69;5031862;28;20035;-55
2022/07/07 03:00:17;;;;;;;17.50;12.80;;;;;;;25.37;53.13;99367.09;5031374;28;20029;-52
2022/07/07 03:02:42;;;;;;;12.90;11.70;;;;;;;25.61;52.37;99363.63;5031876;28;20044;-52
2022/07/07 03:05:08;;;;;;;13.88;11.90;;;;;;;25.86;51.58;99366.19;5031576;28;20025;-52
2022/07/07 03:07:33;;;;;;;13.25;11.50;;;;;;;26.17;50.74;99372.44;5031621;28;20086;-52
2022/07/07 03:09:59;;;;;;;12.32;11.13;;;;;;;26.64;49.17;99367.97;5031465;28;20057;-54
2022/07/07 03:12:24;;;;;;;16.88;11.32;;;;;;;27.30;47.64;99364.94;5031793;28;20128;-49
2022/07/07 03:14:50;;;;;;;18.10;11.52;;;;;;;28.05;45.92;99355.78;5031555;28;20041;-54
2022/07/07 03:17:15;;;;;;;13.05;11.43;;;;;;;28.82;44.13;99358.84;5031234;28;20026;-55
2022/07/07 03:19:41;;;;;;;11.77;9.93;;;;;;;29.37;42.04;99343.16;5031647;28;20430;-51
2022/07/07 03:22:06;;;;;;;11.35;10.20;;;;;;;29.88;41.27;99353.03;5030998;28;20037;-54
2022/07/07 03:24:32;;;;;;;12.63;10.50;;;;;;;30.09;39.99;99322.84;5031335;28;20041;-49
2022/07/07 03:26:59;;;;;;;11.45;10.27;;;;;;;30.62;39.22;99360.72;5031329;28;20025;-49
2022/07/07 03:29:25;;;;;;;14.07;9.15;;;;;;;30.79;38.30;99366.88;5031390;28;20291;-54
2022/07/07 03:31:50;;;;;;;10.60;9.13;;;;;;;31.02;38.36;99373.06;5031494;28;20058;-52
2022/07/07 03:34:16;;;;;;;10.13;9.18;;;;;;;31.00;37.90;99375.25;5030963;28;20029;-50
2022/07/07 03:36:41;;;;;;;9.65;8.75;;;;;;;30.93;38.47;99369.16;5029830;28;20036;-49
2022/07/07 03:39:07;;;;;;;11.05;9.82;;;;;;;30.95;38.00;99378.00;5030810;28;20470;-55
2022/07/07 03:41:32;;;;;;;11.32;10.25;;;;;;;30.90;38.01;99370.53;5031155;28;20112;-55
2022/07/07 03:43:58;;;;;;;10.00;8.80;;;;;;;30.98;37.97;99371.94;5030871;28;20051;-52
2022/07/07 03:46:23;;;;;;;10.45;9.45;;;;;;;31.06;37.74;99367.81;5031471;28;20057;-53
2022/07/07 03:48:49;;;;;;;9.93;9.00;;;;;;;31.18;37.51;99362.88;5030830;28;20029;-54
2022/07/07 03:51:14;;;;;;;9.70;8.80;;;;;;;31.22;37.67;99386.13;5031417;28;20464;-56
2022/07/07 03:53:39;;;;;;;11.77;9.40;;;;;;;31.26;37.72;99367.06;5030933;28;20029;-55
2022/07/07 03:56:05;;;;;;;10.85;9.75;;;;;;;31.34;37.15;99368.47;5029531;28;20033;-55
2022/07/07 03:58:31;;;;;;;12.77;9.63;;;;;;;31.48;36.78;99352.19;5030400;28;20108;-53
2022/07/07 04:00:57;;;;;;;10.65;9.60;;;;;;;31.95;36.33;99369.63;5031037;28;20417;-52
2022/07/07 04:03:22;;;;;;;9.75;8.90;;;;;;;32.29;35.72;99371.00;5030402;28;20072;-50
2022/07/07 04:05:47;;;;;;;10.48;9.40;;;;;;;32.58;35.25;99373.19;5030631;28;20084;-48
2022/07/07 04:08:13;;;;;;;10.43;9.52;;;;;;;32.92;34.48;99366.97;5025798;28;20026;-51
2022/07/07 04:10:38;;;;;;;9.93;9.13;;;;;;;33.24;33.84;99368.47;5011030;28;20030;-55
2022/07/07 04:13:04;;;;;;;9.77;8.88;;;;;;;33.77;33.00;99358.72;5009687;28;20517;-52
2022/07/07 04:15:29;;;;;;;12.95;9.10;;;;;;;34.49;31.79;99368.34;5010797;28;20042;-51
2022/07/07 04:17:55;;;;;;;11.60;10.07;;;;;;;34.99;30.92;99364.38;5017381;28;20030;-50
2022/07/07 04:20:20;;;;;;;9.45;8.65;;;;;;;35.28;30.23;99355.09;5030704;28;20065;-54
2022/07/07 04:22:46;;;;;;;10.60;9.15;;;;;;;35.47;30.04;99355.13;5030458;28;20048;-52
2022/07/07 04:25:11;;;;;;;9.90;8.98;;;;;;;35.48;29.88;99356.75;5030574;28;20040;-52
2022/07/07 04:27:37;;;;;;;10.05;9.02;;;;;;;35.56;29.66;99363.59;5030391;28;20536;-54
2022/07/07 04:30:04;;;;;;;10.32;9.45;;;;;;;36.14;28.90;99370.72;5030302;28;20056;-54
2022/07/07 04:32:30;;;;;;;9.77;8.88;;;;;;;37.08;27.62;99360.56;5030633;28;20059;-53
2022/07/07 04:34:55;;;;;;;9.80;8.98;;;;;;;37.68;26.37;99361.44;5030218;28;20068;-50
2022/07/07 04:37:21;;;;;;;9.38;8.57;;;;;;;38.42;25.22;99354.47;5030614;28;20045;-55
2022/07/07 04:39:46;;;;;;;9.75;8.82;;;;;;;39.07;24.51;99365.22;5030379;28;20048;-53
2022/07/07 04:42:12;;;;;;;10.73;9.00;;;;;;;39.51;24.08;99356.06;5029332;28;20099;-53
2022/07/07 04:44:37;;;;;;;12.57;9.10;;;;;;;39.48;23.88;99371.53;5030278;28;20499;-51
2022/07/07 04:47:03;;;;;;;11.38;9.50;;;;;;;38.89;24.94;99358.75;5030673;28;20042;-51
2022/07/07 04:49:30;;;;;;;10.38;9.38;;;;;;;38.57;25.29;99352.41;5030210;28;20022;-52
2022/07/07 04:51:55;;;;;;;10.55;9.25;;;;;;;38.27;25.97;99354.88;5030596;28;20055;-50
2022/07/07 04:54:21;;;;;;;10.63;9.63;;;;;;;37.76;26.20;99352.28;5030331;28;20354;-51
2022/07/07 04:56:46;;;;;;;12.23;9.55;;;;;;;37.07;27.41;99354.16;5030673;28;20103;-54
2022/07/07 04:59:12;;;;;;;10.93;9.90;;;;;;;36.43;28.22;99330.63;5030144;28;20029;-53
2022/07/07 05:01:37;;;;;;;11.18;9.88;;;;;;;36.78;27.62;99350.56;5029648;28;20030;-52
2022/07/07 05:04:03;;;;;;;11.10;8.90;;;;;;;36.56;28.00;99353.25;5030138;28;20377;-51
2022/07/07 05:06:28;;;;;;;10.00;9.10;;;;;;;35.84;29.16;99353.41;5030609;28;20048;-51
2022/07/07 05:08:54;;;;;;;9.50;8.65;;;;;;;35.71;29.33;99352.22;5030439;28;20083;-55
2022/07/07 05:11:19;;;;;;;10.18;9.02;;;;;;;36.78;27.89;99349.75;5030146;28;20159;-51
2022/07/07 05:13:44;;;;;;;10.73;9.50;;;;;;;37.72;26.26;99337.31;5029918;28;20033;-53
2022/07/07 05:16:10;;;;;;;10.38;9.40;;;;;;;37.77;26.06;99339.97;5031424;28;20099;-56
2022/07/07 05:18:35;;;;;;;9.93;9.07;;;;;;;38.23;25.44;99339.91;5032701;28;20037;-54
2022/07/07 05:21:01;;;;;;;10.30;9.40;;;;;;;39.27;23.88;99348.94;5033568;28;20025;-51
2022/07/07 05:23:27;;;;;;;9.85;9.05;;;;;;;39.94;23.14;99343.97;5033922;28;20030;-55
2022/07/07 05:25:53;;;;;;;11.25;10.02;;;;;;;40.51;22.47;99346.75;5033609;28;20026;-55
2022/07/07 05:28:18;;;;;;;10.55;9.63;;;;;;;40.68;21.83;99321.41;5032471;28;20052;-47
2022/07/07 05:30:44;;;;;;;10.40;9.48;;;;;;;40.80;21.94;99333.91;5032137;28;20096;-53
2022/07/07 05:33:10;;;;;;;10.27;9.43;;;;;;;41.07;21.78;99345.78;5033207;28;20091;-57
2022/07/07 05:35:36;;;;;;;11.02;9.93;;;;;;;41.15;21.50;99339.25;5033660;28;20045;-52
2022/07/07 05:38:02;;;;;;;10.27;9.27;;;;;;;42.51;20.62;99340.91;5033178;28;20112;-52
2022/07/07 05:40:28;;;;;;;9.90;8.95;;;;;;;44.47;18.02;99347.31;5033390;28;20041;-56
2022/07/07 05:42:54;;;;;;;11.10;9.35;;;;;;;46.11;16.43;99338.34;5033564;28;20033;-52
2022/07/07 05:45:20;;;;;;;9.48;8.57;;;;;;;46.73;15.96;99331.63;5033475;28;20107;-53
2022/07/07 05:47:45;;;;;;;9.90;8.77;;;;;;;46.60;16.04;99338.75;5033439;28;20025;-55
2022/07/07 05:50:11;;;;;;;9.50;8.43;;;;;;;46.48;15.74;99324.75;5033130;28;20374;-51
2022/07/07 05:52:37;;;;;;;9.73;7.50;;;;;;;46.77;15.40;99342.19;5032964;28;20041;-56
2022/07/07 05:55:03;;;;;;;9.45;8.18;;;;;;;46.85;15.31;99321.28;5031996;28;20139;-54
2022/07/07 05:57:28;;;;;;;10.25;9.15;;;;;;;47.65;14.63;99333.66;5033482;28;20037;-53
2022/07/07 05:59:54;;;;;;;9.98;8.95;;;;;;;47.61;14.66;99327.91;5032765;28;20204;-55
2022/07/07 06:02:19;;;;;;;9.85;8.55;;;;;;;46.77;15.33;99314.72;5032672;28;20112;-57
2022/07/07 06:04:45;;;;;;;10.40;7.75;;;;;;;46.98;14.97;99336.06;5033095;28;20030;-52
2022/07/07 06:07:10;;;;;;;7.57;6.78;;;;;;;47.38;13.95;99336.56;5032644;28;20128;-55
2022/07/07 06:09:36;;;;;;;7.45;6.85;;;;;;;48.27;13.30;99326.56;5032896;28;20030;-57
2022/07/07 06:12:01;;;;;;;8.00;7.30;;;;;;;49.02;13.14;99327.47;5032588;28;20021;-66
2022/07/07 06:14:28;;;;;;;7.20;6.05;;;;;;;49.52;12.19;99324.84;5032547;28;20112;-53
2022/07/07 06:16:54;;;;;;;10.27;7.53;;;;;;;49.65;12.46;99325.28;5032589;28;20033;-53
2022/07/07 06:19:19;;;;;;;8.05;7.35;;;;;;;50.09;11.97;99325.34;5032471;28;20091;-55
2022/07/07 06:21:45;;;;;;;6.85;6.35;;;;;;;50.62;11.18;99318.00;5032733;28;20485;-52
2022/07/07 06:24:11;;;;;;;8.52;6.88;;;;;;;51.08;10.72;99318.28;5032148;28;20065;-54
2022/07/07 06:26:36;;;;;;;7.45;6.85;;;;;;;51.91;10.51;99317.81;5032396;28;20492;-56
2022/07/07 06:29:03;;;;;;;6.88;6.18;;;;;;;52.31;9.99;99320.34;5032684;28;20068;-54
2022/07/07 06:31:29;;;;;;;7.28;6.70;;;;;;;52.70;9.71;99329.81;5032637;28;20039;-53
2022/07/07 06:33:55;;;;;;;6.85;6.15;;;;;;;52.88;9.21;99312.44;5032073;28;20037;-53
2022/07/07 06:36:20;;;;;;;6.65;6.15;;;;;;;53.32;8.89;99321.28;5032397;28;20033;-55
2022/07/07 06:38:46;;;;;;;6.35;5.75;;;;;;;53.93;8.52;99316.72;5032204;28;20033;-56
2022/07/07 06:41:11;;;;;;;6.65;6.15;;;;;;;54.51;8.48;99309.22;5031701;28;20124;-53
2022/07/07 06:43:37;;;;;;;7.43;6.82;;;;;;;54.74;8.24;99307.53;5031264;28;20030;-53
2022/07/07 06:46:02;;;;;;;7.03;6.53;;;;;;;54.65;7.98;99311.78;5032676;28;20033;-55
2022/07/07 06:48:28;;;;;;;7.30;6.68;;;;;;;54.77;8.09;99306.69;5030615;28;20568;-49
2022/07/07 06:50:54;;;;;;;8.02;7.22;;;;;;;54.78;8.52;99316.88;5032029;28;20056;-51
2022/07/07 06:53:20;;;;;;;7.70;7.03;;;;;;;54.80;8.50;99320.91;5021015;28;20470;-52
2022/07/07 06:55:46;;;;;;;8.10;7.50;;;;;;;54.52;8.04;99319.41;5023624;28;20025;-54
2022/07/07 06:58:11;;;;;;;8.57;7.85;;;;;;;54.52;8.18;99330.88;5027681;28;20037;-55
2022/07/07 07:00:38;;;;;;;9.40;7.40;;;;;;;54.81;8.26;99327.47;5032067;28;20116;-60
2022/07/07 07:03:03;;;;;;;8.85;7.72;;;;;;;54.18;8.76;99314.69;5032059;28;20261;-58
2022/07/07 07:05:29;;;;;;;8.93;7.22;;;;;;;53.84;9.08;99304.22;5031320;28;20034;-57
2022/07/07 07:07:54;;;;;;;9.77;7.93;;;;;;;54.33;8.39;99318.91;5031276;28;20845;-58
2022/07/07 07:10:20;;;;;;;8.23;7.63;;;;;;;54.88;8.04;99324.44;5031584;28;20034;-56
2022/07/07 07:12:45;;;;;;;8.95;7.70;;;;;;;54.76;8.56;99316.53;5031789;28;20052;-58
2022/07/07 07:15:11;;;;;;;8.05;7.22;;;;;;;55.29;8.37;99312.94;5030952;28;20048;-57
2022/07/07 07:17:37;;;;;;;8.68;7.85;;;;;;;56.28;7.47;99304.41;5031235;28;20112;-59
2022/07/07 07:20:04;;;;;;;9.55;8.63;;;;;;;56.47;7.69;99316.25;5031796;28;20443;-58
2022/07/07 07:22:39;;;;;;;8.70;7.85;;;;;;;57.07;7.48;99300.56;5031274;28;20064;-61
2022/07/07 07:25:05;;;;;;;9.70;8.70;;;;;;;57.36;7.02;99316.97;5029521;28;20037;-52
2022/07/07 07:27:33;;;;;;;8.95;8.25;;;;;;;57.68;6.67;99320.09;5031210;28;20041;-57
2022/07/07 07:29:58;;;;;;;9.25;8.50;;;;;;;57.44;6.62;99311.78;5031027;28;20481;-59
2022/07/07 07:32:24;;;;;;;9.75;8.85;;;;;;;57.61;6.69;99312.47;5030206;28;20048;-59
2022/07/07 07:34:49;;;;;;;9.70;8.90;;;;;;;57.60;6.09;99308.00;5030427;28;20021;-62
2022/07/07 07:37:15;;;;;;;9.17;8.47;;;;;;;57.69;6.06;99315.94;5030244;28;20266;-59
2022/07/07 07:39:40;;;;;;;10.15;8.57;;;;;;;56.85;6.54;99309.03;5028483;28;20032;-52
2022/07/07 07:42:06;;;;;;;8.23;7.63;;;;;;;54.54;7.56;99299.72;5025930;28;20033;-51
2022/07/07 07:47:16;;;;;;;7.55;6.95;;;;;;;48.39;12.03;99308.41;5025740;28;20029;-50
2022/07/07 07:49:41;;;;;;;8.20;7.22;;;;;;;47.43;12.83;99313.56;5013374;28;20390;-48
2022/07/07 07:52:07;;;;;;;8.23;7.00;;;;;;;48.03;12.48;99311.78;5024981;28;20120;-48
2022/07/07 07:54:33;;;;;;;8.23;7.43;;;;;;;48.34;11.84;99309.56;5029323;28;20030;-52
2022/07/07 07:56:58;;;;;;;8.10;7.40;;;;;;;48.31;11.80;99296.16;5029925;28;20041;-50
2022/07/07 07:59:24;;;;;;;8.60;7.80;;;;;;;49.30;11.32;99291.88;5027849;28;20057;-51
2022/07/07 08:01:49;;;;;;;8.48;7.65;;;;;;;51.04;9.54;99297.53;5029073;28;20033;-62
2022/07/07 08:04:15;;;;;;;8.98;8.07;;;;;;;52.64;9.06;99302.91;5029738;28;20037;-52
2022/07/07 08:06:40;;;;;;;8.77;8.07;;;;;;;53.28;8.27;99319.72;5030373;28;20394;-54
2022/07/07 08:09:06;;;;;;;9.10;7.80;;;;;;;52.56;8.75;99318.50;5030222;28;20067;-53
2022/07/07 08:11:32;;;;;;;8.50;7.80;;;;;;;51.82;9.14;99318.28;5030397;28;20030;-51
2022/07/07 08:13:57;;;;;;;8.93;8.00;;;;;;;49.99;10.68;99302.16;5029144;28;20602;-56
2022/07/07 08:16:23;;;;;;;9.63;7.67;;;;;;;47.64;11.91;99314.97;5030611;28;20033;-56
2022/07/07 08:18:48;;;;;;;8.63;7.82;;;;;;;45.73;13.78;99303.28;5030402;28;20273;-54
2022/07/07 08:21:14;;;;;;;9.68;7.80;;;;;;;45.09;14.22;99300.75;5030170;28;20018;-52
2022/07/07 08:23:39;;;;;;;8.52;7.63;;;;;;;46.22;13.32;99304.56;5026606;28;20040;-52
2022/07/07 08:26:06;;;;;;;8.93;7.82;;;;;;;46.92;12.88;99276.09;5021937;28;20507;-54
2022/07/07 08:28:32;;;;;;;8.70;8.00;;;;;;;46.40;13.27;99301.19;5019327;28;20025;-52
2022/07/07 08:30:57;;;;;;;9.35;8.25;;;;;;;45.21;14.57;99294.97;5017373;28;20861;-49
2022/07/07 08:33:23;;;;;;;9.50;8.52;;;;;;;43.75;16.12;99323.72;5011322;28;20042;-51
2022/07/07 08:35:49;;;;;;;9.88;8.90;;;;;;;42.34;17.12;99300.56;5021577;28;20033;-50
2022/07/07 08:38:15;;;;;;;13.32;8.77;;;;;;;41.15;18.51;99302.75;5019906;28;20486;-49
2022/07/07 08:40:40;;;;;;;10.43;9.52;;;;;;;40.01;19.71;99321.84;5018637;28;20026;-49
2022/07/07 08:43:06;;;;;;;10.32;9.23;;;;;;;39.04;20.65;99312.72;5019592;28;20439;-55
2022/07/07 08:45:32;;;;;;;10.23;8.95;;;;;;;38.45;21.17;99314.69;5028664;28;20032;-55
2022/07/07 08:47:59;;;;;;;12.60;9.10;;;;;;;38.04;21.67;99322.25;5028686;28;20120;-55
2022/07/07 08:50:25;;;;;;;9.93;8.95;;;;;;;37.49;22.43;99301.81;5012824;28;20517;-53
2022/07/07 08:52:53;;;;;;;9.65;8.85;;;;;;;37.05;23.68;99297.84;5031439;28;20489;-54
2022/07/07 08:55:22;;;;;;;10.38;9.48;;;;;;;37.01;23.54;99319.97;5016954;28;20034;-53
2022/07/07 08:57:51;;;;;;;12.68;9.65;;;;;;;36.60;23.90;99302.16;5028202;28;20436;-55
2022/07/07 09:00:17;;;;;;;10.07;9.07;;;;;;;36.46;24.57;99312.44;5033543;28;20029;-53
2022/07/07 09:02:43;;;;;;;11.65;9.68;;;;;;;36.47;24.49;99311.31;5033343;28;20116;-56
2022/07/07 09:05:09;;;;;;;10.65;9.65;;;;;;;36.80;24.81;99318.75;5022234;28;20057;-53
2022/07/07 09:07:45;;;;;;;10.57;9.57;;;;;;;37.43;23.97;99307.84;5055744;28;20034;-54
2022/07/07 09:10:11;;;;;;;10.82;9.88;;;;;;;37.54;23.40;99281.34;5016818;28;20025;-55
2022/07/07 09:12:36;;;;;;;13.50;9.82;;;;;;;37.79;23.73;99309.72;5017832;28;20033;-59
2022/07/07 09:15:04;;;;;;;10.90;9.32;;;;;;;37.73;23.83;99297.06;5054951;28;20081;-52
2022/07/07 09:17:33;;;;;;;11.48;10.30;;;;;;;37.83;23.13;99319.13;5020888;28;20049;-54
2022/07/07 09:20:12;;;;;;;11.07;10.05;;;;;;;37.84;23.42;99317.97;5025625;28;20148;-54
2022/07/07 09:22:56;;;;;;;10.60;9.50;;;;;;;37.73;23.25;99316.59;5016869;28;20037;-53
2022/07/07 09:25:24;;;;;;;10.35;9.32;;;;;;;37.59;23.73;99317.50;5032887;28;20041;-53
2022/07/07 09:27:58;;;;;;;10.85;9.85;;;;;;;37.68;24.48;99314.75;5033005;28;20054;-52
2022/07/07 09:30:38;;;;;;;11.95;10.23;;;;;;;37.88;23.93;99307.84;5047493;28;20168;-51
2022/07/07 09:33:12;;;;;;;11.13;9.98;;;;;;;38.05;23.98;99312.72;5032193;28;20046;-49
2022/07/07 09:38:24;;;;;;;10.88;9.35;;;;;;;37.57;24.16;99308.63;5032226;28;20034;-51
2022/07/07 09:40:59;;;;;;;13.25;9.43;;;;;;;37.38;24.36;99289.25;5032092;28;20036;-52
2022/07/07 09:43:44;;;;;;;12.88;9.77;;;;;;;37.42;24.11;99322.94;5032540;28;20041;-50
2022/07/07 09:46:21;;;;;;;9.53;8.57;;;;;;;37.10;23.87;99302.47;5032695;28;20106;-49
2022/07/07 09:48:51;;;;;;;10.23;9.05;;;;;;;36.86;24.34;99311.91;5032020;28;20030;-51
2022/07/07 09:51:18;;;;;;;11.05;8.63;;;;;;;36.53;24.43;99309.28;5031582;28;20025;-52
2022/07/07 09:54:07;;;;;;;9.57;8.45;;;;;;;36.44;24.40;99317.50;5031666;28;20076;-48
2022/07/07 09:56:32;;;;;;;9.82;8.93;;;;;;;36.08;25.09;99305.09;5032305;28;20044;-54
2022/07/07 09:58:59;;;;;;;10.73;9.15;;;;;;;36.13;25.42;99313.34;5025924;28;20033;-54
2022/07/07 10:01:27;;;;;;;13.95;9.20;;;;;;;36.24;25.24;99313.19;5027427;28;20044;-52
2022/07/07 10:04:00;;;;;;;9.75;8.93;;;;;;;36.37;25.02;99315.13;5024637;28;20026;-61
2022/07/07 10:06:27;;;;;;;10.15;9.25;;;;;;;36.31;24.97;99324.72;5023689;28;20034;-63
2022/07/07 10:09:01;;;;;;;10.07;9.15;;;;;;;36.25;25.50;99326.78;5019912;28;20030;-63
2022/07/07 10:11:35;;;;;;;10.77;9.50;;;;;;;36.45;25.33;99325.56;5031291;28;20038;-60
2022/07/07 10:14:09;;;;;;;10.80;9.90;;;;;;;36.65;25.46;99317.13;5030342;28;20033;-62
2022/07/07 10:16:36;;;;;;;10.38;9.30;;;;;;;36.81;25.20;99325.97;5031730;28;20045;-61
2022/07/07 10:19:02;;;;;;;11.43;10.40;;;;;;;36.76;25.44;99330.53;5031823;28;20124;-59
2022/07/07 10:21:27;;;;;;;10.88;9.90;;;;;;;36.57;25.37;99321.44;5031717;28;20204;-60
2022/07/07 10:23:53;;;;;;;11.57;10.38;;;;;;;36.52;25.99;99325.16;5031417;28;20483;-59
2022/07/07 10:26:34;;;;;;;10.07;9.18;;;;;;;36.75;25.73;99334.44;5020272;28;20358;-59
2022/07/07 10:29:00;;;;;;;13.98;10.25;;;;;;;36.48;26.06;99324.94;5021089;28;20066;-59
2022/07/07 10:31:28;;;;;;;11.73;10.73;;;;;;;36.38;26.04;99327.91;5017086;28;20038;-52
2022/07/07 10:33:59;;;;;;;11.18;10.13;;;;;;;36.14;26.61;99322.56;5014037;28;20068;-57
2022/07/07 10:36:25;;;;;;;11.43;10.30;;;;;;;36.02;26.71;99311.91;5031846;28;20067;-57
2022/07/07 10:38:52;;;;;;;11.10;9.95;;;;;;;36.02;27.21;99323.88;5030974;28;20108;-59
2022/07/07 10:41:25;;;;;;;11.10;10.13;;;;;;;36.19;26.91;99323.28;5031055;28;20030;-56
2022/07/07 10:44:09;;;;;;;13.88;10.90;;;;;;;36.52;26.31;99325.16;5030847;28;20036;-64
2022/07/07 10:46:35;;;;;;;12.93;10.65;;;;;;;36.48;26.53;99313.78;5029208;28;20464;-56
2022/07/07 10:49:12;;;;;;;11.13;10.23;;;;;;;36.67;26.24;99314.84;5030620;28;20033;-55
2022/07/07 10:51:54;;;;;;;12.25;10.25;;;;;;;36.81;25.69;99318.44;5030874;28;20542;-56
2022/07/07 10:54:41;;;;;;;12.10;10.80;;;;;;;36.99;26.12;99319.44;5030111;28;20025;-54
2022/07/07 10:57:18;;;;;;;12.82;11.40;;;;;;;37.03;26.14;99311.31;5030626;28;20064;-52
2022/07/07 11:00:06;;;;;;;11.70;10.57;;;;;;;37.05;26.02;99332.16;5029964;28;20523;-50
2022/07/07 11:02:43;;;;;;;14.75;10.30;;;;;;;37.06;26.04;99317.06;5029808;28;20034;-53
2022/07/07 11:05:14;;;;;;;15.70;10.90;;;;;;;36.97;26.41;99323.66;5024804;28;20033;-57
2022/07/07 11:07:55;;;;;;;11.80;10.60;;;;;;;36.69;27.17;99324.56;5031404;28;20036;-52
2022/07/07 11:10:21;;;;;;;11.38;10.38;;;;;;;36.19;27.25;99320.50;5022648;28;20088;-54
2022/07/07 11:12:51;;;;;;;11.30;10.20;;;;;;;35.88;27.62;99318.25;5025991;28;20033;-52
2022/07/07 11:15:30;;;;;;;13.93;10.73;;;;;;;35.59;28.17;99310.13;5017887;28;20374;-54
2022/07/07 11:17:55;;;;;;;11.85;10.80;;;;;;;35.47;28.75;99310.56;5027381;28;20443;-55
2022/07/07 11:20:23;;;;;;;11.75;10.65;;;;;;;35.32;28.35;99318.03;5028013;28;20120;-56
2022/07/07 11:22:52;;;;;;;11.68;10.45;;;;;;;35.19;28.24;99324.34;5023800;28;20030;-54
2022/07/07 11:25:20;;;;;;;11.35;10.40;;;;;;;35.04;28.59;99322.63;5019587;28;20030;-56
2022/07/07 11:27:49;;;;;;;11.40;10.27;;;;;;;35.01;28.86;99312.94;5030422;28;20034;-55
2022/07/07 11:30:16;;;;;;;13.23;10.77;;;;;;;34.80;28.74;99297.63;5021907;28;20162;-55